Ana Sayfa
METAR-TAF:

METAR-TAF

Havaalanları :

Midilli, Yunanistan

Enlem: 39-04N, Boylam: 026-36E, yükseklik: 3 m

Güncel hava durumu gözlemi

Rapor saat 08:20 UTC de 18 dakika önce yapıldı.
Rüzgar doğu/kuzeydoğudan 6 kt
Sıcaklık 13°C
Nem 82%
Basınç 1011 hPa
Görüş mesafesi 10 km veya daha fazla
2000 ft yükseklikte az bulutlu
2500 ft yükseklikte parçalı bulutlu

METAR: LGMT 230820Z 06006KT 9999 FEW020 SCT025 13/10 Q1011

Saat: 10:38 (08:38 UTC)

Tahmin

Rapor saat 05:00 UTC de 3 saat ve 38 dakika önce yapıldı.
Ayın 23'si saat 06 UTC'den ayın 23'si saat 15 UTC'ye kadar geçerli Tahmin
Rüzgar doğudan 10 kt
Görüş mesafesi 10 km veya daha fazla
1800 ft yükseklikte az bulutlu
2500 ft yükseklikte parçalı bulutlu
Geçici
ayın 23'si saat 06 UTC'den ayın 23'si saat 09 UTC'ye kadar
1600 ft yükseklikte parçalı bulutlu
2500 ft yükseklikte parçalı çok bulutlu

TAF: LGMT 230500Z 2306/2315 09010KT 9999 FEW018 SCT025 TEMPO 2306/2309 SCT016 BKN025

4.000'den fazla havaalanı için hava durumu gözlemleri ve tahminleri (METAR ve TAF raporları).

Kullanılabilir istasyonlar harita üzerinde sarı ve kırmızı noktalarla gösterilir.

İstasyonun adını görmek için fareyi noktanın üzerinde gezdirin.

Sonrasında hava gözlem ve tahminlerini görmek için tıklayın.

Haritayı değiştirmek için: yaklaştırmak için siyah artı işaretli yeşil düğmeye ve uzaklaştırmak için de eksi işaretli düğmeye hızla tıklayın; bitişik haritalar için yeşil okları kullanın.


METAR-TAF: